Weaverville, CA

6:50 PM PDT on September 25, 2016 (GMT -0700)
Weaverville

Weather History for KO54 - November, 2013

Change the Weather History Date:

Saturday, November 16, 2013

  Actual Average (KRDD) Record (KRDD)
Temperature  
Mean Temperature 44 °F -  
Max Temperature 55 °F 62 °F 77 °F (2005)
Min Temperature 32 °F 41 °F 29 °F (1993)
Degree Days  
Heating Degree Days 22    
Cooling Degree Days 0    
Moisture  
Dew Point 35 °F    
Average Humidity 65    
Maximum Humidity 93    
Minimum Humidity 51    
Precipitation  
Precipitation 0.00 in 0.15 in 1.01 in (1988)
Month to date precipitation 2.05  
Year to date precipitation 25.92  
Sea Level Pressure  
Sea Level Pressure 29.81 in    
Wind  
Wind Speed 10 mph (SW)    
Max Wind Speed 20 mph    
Max Gust Speed 29 mph    
Visibility 10 miles    
Events      
T = Trace of Precipitation, MM = Missing Value Source: NWS Daily Summary

Daily Weather History Graph

Daily Weather History Graph

Search for Another Location

Airport or City:

Trip Planner

Search our weather history database for the weather conditions in past years. The results will help you decide how hot, cold, wet, or windy it might be!

Date:

Astronomy

Nov. 16, 2013 Rise Set
Actual Time 7:00 AM PST 4:52 PM PST
Civil Twilight 6:30 AM PST 5:21 PM PST
Nautical Twilight 5:57 AM PST 5:55 PM PST
Astronomical Twilight 5:25 AM PST 6:27 PM PST
Moon 4:31 PM PST (11/16) 6:01 AM PST (11/16)
Length of Visible Light 10h 51m
Length of Day
9h 52m
Waxing Gibbous, 99% of the Moon is Illuminated
Nov 16
Waxing Gibbous
Nov 17
Full
Nov 25
Last Quarter
Dec 2
New
Dec 9
First Quarter

Hourly Weather History & Observations

Time (PST) Temp. Windchill Dew Point Humidity Pressure Visibility Wind Dir Wind Speed Gust Speed Precip Events Conditions
12:15 AM 44.6 °F 38.4 °F 32.0 °F 61% 29.76 in 10.0 mi SW 12.7 mph 21.9 mph N/A   Overcast
12:35 AM 44.6 °F 38.4 °F 32.0 °F 61% 29.76 in 10.0 mi SSW 12.7 mph 21.9 mph N/A   Overcast
12:55 AM 44.6 °F 38.4 °F 32.0 °F 61% 29.76 in 10.0 mi SSW 12.7 mph 19.6 mph N/A   Overcast
1:15 AM 44.6 °F 39.7 °F 32.0 °F 61% 29.77 in 10.0 mi SSW 9.2 mph 20.7 mph N/A   Overcast
1:35 AM 44.6 °F 37.8 °F 32.0 °F 61% 29.77 in 10.0 mi SW 15.0 mph 24.2 mph N/A   Overcast
1:55 AM 44.6 °F 37.2 °F 32.0 °F 61% 29.76 in 10.0 mi SW 17.3 mph 28.8 mph N/A   Overcast
2:15 AM 44.6 °F 39.7 °F 32.0 °F 61% 29.77 in 10.0 mi SSW 9.2 mph 21.9 mph N/A   Overcast
2:35 AM 44.6 °F 42.2 °F 32.0 °F 61% 29.77 in 10.0 mi East 4.6 mph - N/A   Overcast
2:55 AM 44.6 °F 40.2 °F 32.0 °F 61% 29.77 in 10.0 mi WNW 8.1 mph - N/A   Overcast
3:15 AM 44.6 °F 40.7 °F 32.0 °F 61% 29.77 in 10.0 mi NW 6.9 mph - N/A   Overcast
3:35 AM 44.6 °F - 32.0 °F 61% 29.78 in 10.0 mi Calm Calm - N/A   Overcast
3:55 AM 44.6 °F 42.2 °F 32.0 °F 61% 29.77 in 10.0 mi WSW 4.6 mph - N/A   Overcast
4:15 AM 44.6 °F 39.7 °F 32.0 °F 61% 29.78 in 10.0 mi West 9.2 mph 18.4 mph N/A   Overcast
4:35 AM 44.6 °F 39.7 °F 32.0 °F 61% 29.78 in 10.0 mi SW 9.2 mph - N/A   Overcast
4:55 AM 44.6 °F 40.7 °F 32.0 °F 61% 29.78 in 10.0 mi SSW 6.9 mph - N/A   Overcast
5:15 AM 42.8 °F 41.1 °F 32.0 °F 66% 29.78 in 10.0 mi SSW 3.5 mph - N/A   Overcast
5:35 AM 42.8 °F 40.1 °F 32.0 °F 66% 29.77 in 10.0 mi SSW 4.6 mph - N/A   Overcast
5:55 AM 42.8 °F 37.0 °F 32.0 °F 66% 29.77 in 10.0 mi SSW 10.4 mph - N/A   Overcast
6:15 AM 44.6 °F 38.8 °F 32.0 °F 61% 29.77 in 10.0 mi SW 11.5 mph 16.1 mph N/A   Overcast
6:35 AM 44.6 °F 37.8 °F 32.0 °F 61% 29.78 in 10.0 mi SW 15.0 mph 20.7 mph N/A   Overcast
6:55 AM 44.6 °F 38.1 °F 33.8 °F 66% 29.78 in 10.0 mi SW 13.8 mph 19.6 mph N/A   Overcast
7:15 AM 44.6 °F 38.4 °F 33.8 °F 66% 29.78 in 10.0 mi SW 12.7 mph 17.3 mph N/A   Overcast
7:35 AM 44.6 °F 37.4 °F 35.6 °F 71% 29.78 in 10.0 mi SW 16.1 mph 21.9 mph N/A   Overcast
7:55 AM 44.6 °F 37.2 °F 35.6 °F 71% 29.77 in 10.0 mi SW 17.3 mph 24.2 mph N/A   Overcast
8:15 AM 44.6 °F 37.2 °F 35.6 °F 71% 29.78 in 10.0 mi SW 17.3 mph 23.0 mph N/A   Overcast
8:35 AM 46.4 °F 39.8 °F 35.6 °F 66% 29.78 in 10.0 mi SW 16.1 mph 25.3 mph N/A   Overcast
8:55 AM 46.4 °F 39.2 °F 35.6 °F 66% 29.78 in 10.0 mi SW 18.4 mph 25.3 mph N/A   Overcast
9:15 AM 46.4 °F 39.2 °F 37.4 °F 71% 29.78 in 10.0 mi SW 18.4 mph 25.3 mph N/A   Overcast
9:35 AM 48.2 °F - 37.4 °F 66% 29.78 in 10.0 mi WSW 19.6 mph 27.6 mph N/A   Overcast
9:55 AM 48.2 °F - 37.4 °F 66% 29.79 in 10.0 mi SW 17.3 mph 27.6 mph N/A   Overcast
10:15 AM 50.0 °F - 37.4 °F 62% 29.80 in 10.0 mi SW 16.1 mph 25.3 mph N/A   Overcast
10:35 AM 50.0 °F - 37.4 °F 62% 29.80 in 10.0 mi WSW 13.8 mph 25.3 mph N/A   Overcast
10:55 AM 51.8 °F - 39.2 °F 62% 29.80 in 10.0 mi SW 11.5 mph 26.5 mph N/A   Overcast
11:15 AM 51.8 °F - 39.2 °F 62% 29.79 in 10.0 mi SW 15.0 mph 20.7 mph N/A   Overcast
11:35 AM 53.6 °F - 39.2 °F 58% 29.79 in 10.0 mi SW 9.2 mph 19.6 mph N/A   Overcast
11:55 AM 53.6 °F - 39.2 °F 58% 29.79 in 10.0 mi SW 12.7 mph 23.0 mph N/A   Mostly Cloudy
12:15 PM 53.6 °F - 39.2 °F 58% 29.78 in 10.0 mi WSW 13.8 mph 21.9 mph N/A   Mostly Cloudy
12:35 PM 53.6 °F - 37.4 °F 54% 29.78 in 10.0 mi SW 13.8 mph 19.6 mph N/A   Partly Cloudy
12:55 PM 53.6 °F - 37.4 °F 54% 29.78 in 10.0 mi WSW 13.8 mph 21.9 mph N/A   Clear
1:15 PM 55.4 °F - 37.4 °F 51% 29.79 in 10.0 mi SW 15.0 mph 24.2 mph N/A   Partly Cloudy
1:35 PM 55.4 °F - 37.4 °F 51% 29.79 in 10.0 mi WSW 9.2 mph 19.6 mph N/A   Mostly Cloudy
1:55 PM 55.4 °F - 37.4 °F 51% 29.79 in 10.0 mi WSW 12.7 mph 18.4 mph N/A   Overcast
2:15 PM 53.6 °F - 37.4 °F 54% 29.79 in 10.0 mi SW 13.8 mph 21.9 mph N/A   Scattered Clouds
2:35 PM 53.6 °F - 37.4 °F 54% 29.79 in 10.0 mi WSW 16.1 mph 25.3 mph N/A   Clear
2:55 PM 53.6 °F - 37.4 °F 54% 29.79 in 10.0 mi WSW 13.8 mph 23.0 mph N/A   Clear
3:15 PM 53.6 °F - 35.6 °F 51% 29.79 in 10.0 mi WSW 13.8 mph 20.7 mph N/A   Clear
3:35 PM 53.6 °F - 35.6 °F 51% 29.79 in 10.0 mi SSW 12.7 mph 26.5 mph N/A   Clear
3:55 PM 51.8 °F - 37.4 °F 58% 29.79 in 10.0 mi South 5.8 mph 19.6 mph N/A   Clear
4:15 PM 51.8 °F - 37.4 °F 58% 29.80 in 10.0 mi South 6.9 mph - N/A   Clear
4:35 PM 50.0 °F - 37.4 °F 62% 29.80 in 10.0 mi SSW 3.5 mph - N/A   Clear
4:55 PM 48.2 °F - 37.4 °F 66% 29.82 in 10.0 mi SE 4.6 mph - N/A   Clear
5:15 PM 48.2 °F - 37.4 °F 66% 29.82 in 10.0 mi SE 4.6 mph - N/A   Clear
5:35 PM 48.2 °F - 37.4 °F 66% 29.82 in 10.0 mi South 5.8 mph - N/A   Partly Cloudy
5:55 PM 48.2 °F - 37.4 °F 66% 29.83 in 10.0 mi South 5.8 mph - N/A   Clear
6:15 PM 48.2 °F - 37.4 °F 66% 29.83 in 10.0 mi South 5.8 mph - N/A   Clear
6:35 PM 48.2 °F - 37.4 °F 66% 29.85 in 10.0 mi SSW 9.2 mph 16.1 mph N/A   Clear
6:55 PM 48.2 °F - 37.4 °F 66% 29.86 in 10.0 mi SSW 11.5 mph 17.3 mph N/A   Clear
7:15 PM 46.4 °F 43.5 °F 35.6 °F 66% 29.87 in 10.0 mi SSW 5.8 mph - N/A   Clear
7:35 PM 46.4 °F 42.4 °F 35.6 °F 66% 29.87 in 10.0 mi SSW 8.1 mph - N/A   Clear
7:55 PM 46.4 °F 42.9 °F 35.6 °F 66% 29.88 in 10.0 mi SSW 6.9 mph - N/A   Clear
8:15 PM 46.4 °F 44.3 °F 35.6 °F 66% 29.89 in 10.0 mi South 4.6 mph - N/A   Clear
8:35 PM 41.0 °F 38.0 °F 32.0 °F 70% 29.89 in 10.0 mi North 4.6 mph - N/A   Clear
8:55 PM 39.2 °F 37.0 °F 32.0 °F 75% 29.90 in 10.0 mi NNE 3.5 mph - N/A   Partly Cloudy
9:15 PM 37.4 °F 34.9 °F 32.0 °F 81% 29.91 in 10.0 mi NE 3.5 mph - N/A   Partly Cloudy
9:35 PM 37.4 °F - 32.0 °F 81% 29.91 in 10.0 mi Calm Calm - N/A   Partly Cloudy
9:55 PM 35.6 °F - 32.0 °F 87% 29.91 in 10.0 mi Calm Calm - N/A   Partly Cloudy
10:15 PM 35.6 °F 32.8 °F 32.0 °F 87% 29.91 in 10.0 mi NNE 3.5 mph - N/A   Clear
10:35 PM 35.6 °F - 32.0 °F 87% 29.92 in 10.0 mi Calm Calm - N/A   Clear
10:55 PM 33.8 °F 30.8 °F 30.2 °F 87% 29.93 in 10.0 mi North 3.5 mph - N/A   Partly Cloudy
11:15 PM 33.8 °F - 30.2 °F 87% 29.93 in 10.0 mi Calm Calm - N/A   Partly Cloudy
11:35 PM 32.0 °F - 30.2 °F 93% 29.94 in 10.0 mi Calm Calm - N/A   Partly Cloudy
11:55 PM 32.0 °F - 30.2 °F 93% 29.94 in 10.0 mi Calm Calm - N/A   Clear